Arcola, Louisiana
Current Conditions -  °F | °C
As of 5:35 PM on Saturday 22 Nov 2014 (Local Time) from KHDC Reporting Station
Scattered Clouds Scattered Clouds  
Wind Chill: 63°   Ceiling: Unl
Heat Index: 63°   Visibility: 10mi
Dew Point: 55°   Wind: 10mph
Humidity: 77%   Direction: 120°ESE
Pressure: 30.05"   Gusts: NA
Location:  30.7896°N, 90.5314°W
Report Text: KHDC 222335Z AUTO 12009KT 10SM SCT050 17/13 A3005 RMK AO2 LTG DSNT W
Loading
Personal Weather Stations






























Interactive Weather Map New forecast layout! Learn more

10-Day Weather Forecast

Advertisements
Track Severe Weather on mobile